KSNK/SNK METAR and TAF weather

Enter ICAO airport designator
Station Type Date Time Source
KSNK METAR 2019/10/23 03:15 UTC NOAA

KSNK 230315Z AUTO 12007KT 10SM CLR 17/M06 A3006 RMK AO2 T01651063


Station Type Date Time Source
KSNK Decoded METAR 2019/10/23 03:15 UTC NOAA

Snyder, Winston Field Airport, TX, United States (KSNK) 32-41-36N 100-57-01W
Oct 22, 2019 - 11:15 PM EDT / 2019.10.23 0315 UTC
Wind: from the ESE (120 degrees) at 8 MPH (7 KT):0
Visibility: 10 mile(s):0
Sky conditions: clear
Temperature: 61.7 F (16.5 C)
Dew Point: 20.7 F (-6.3 C)
Relative Humidity: 20%
Pressure (altimeter): 30.06 in. Hg (1017 hPa)
ob: KSNK 230315Z AUTO 12007KT 10SM CLR 17/M06 A3006 RMK AO2 T01651063
cycle: 3

Station Type Date Time Source
KSNK TAF UTC NOAA

Error!

Example: see airport list